createdAt,value
2023-04-27T00:01:39.403Z,99309.81
2023-04-27T00:04:07.681Z,99314.13
2023-04-27T00:06:34.630Z,99307.19
2023-04-27T00:09:01.451Z,99301.19
2023-04-27T00:11:28.257Z,99301.41
2023-04-27T00:13:55.042Z,99304.34
2023-04-27T00:16:21.882Z,99299.50
2023-04-27T00:18:49.011Z,99287.09
2023-04-27T00:21:15.745Z,99292.94
2023-04-27T00:23:42.394Z,99294.25
2023-04-27T00:26:09.087Z,99291.22
2023-04-27T00:28:36.196Z,99288.66
2023-04-27T00:31:04.213Z,99286.00
2023-04-27T00:33:31.855Z,99284.25
2023-04-27T00:36:02.074Z,99282.34
2023-04-27T00:38:29.469Z,99277.88
2023-04-27T00:41:07.445Z,99276.47
2023-04-27T00:43:42.208Z,99274.59
2023-04-27T00:46:10.083Z,99277.91
2023-04-27T00:48:37.830Z,99268.50
2023-04-27T00:51:06.129Z,99271.75
2023-04-27T00:53:34.437Z,99267.75
2023-04-27T00:56:01.249Z,99271.19
2023-04-27T00:58:29.041Z,99270.72
2023-04-27T01:00:56.459Z,99275.28
2023-04-27T01:03:24.148Z,99270.56
2023-04-27T01:05:51.154Z,99274.59
2023-04-27T01:08:18.065Z,99278.50
2023-04-27T01:10:45.041Z,99278.44
2023-04-27T01:13:12.438Z,99274.78
2023-04-27T01:15:39.210Z,99275.31
2023-04-27T01:18:09.876Z,99273.94
2023-04-27T01:20:36.676Z,99280.19
2023-04-27T01:23:04.754Z,99280.31
2023-04-27T01:25:31.847Z,99281.69
2023-04-27T01:28:02.225Z,99290.53
2023-04-27T01:30:30.466Z,99287.75
2023-04-27T01:32:59.029Z,99289.69
2023-04-27T01:35:28.093Z,99284.66
2023-04-27T01:37:59.961Z,99281.09
2023-04-27T01:40:26.816Z,99281.03
2023-04-27T01:42:53.604Z,99290.19
2023-04-27T01:45:20.340Z,99291.13
2023-04-27T01:47:47.126Z,99298.16
2023-04-27T01:50:13.828Z,99301.88
2023-04-27T01:52:40.774Z,99298.78
2023-04-27T01:55:08.087Z,99298.66
2023-04-27T01:57:34.910Z,99297.66
2023-04-27T02:00:01.750Z,99299.19
2023-04-27T02:02:47.469Z,99309.94
2023-04-27T02:05:14.396Z,99316.13
2023-04-27T02:07:41.111Z,99322.59
2023-04-27T02:10:08.351Z,99318.22
2023-04-27T02:12:35.012Z,99321.53
2023-04-27T02:15:03.732Z,99320.44
2023-04-27T02:17:31.333Z,99319.63
2023-04-27T02:19:58.109Z,99319.56
2023-04-27T02:22:24.780Z,99319.31
2023-04-27T02:24:51.920Z,99317.47
2023-04-27T02:27:18.748Z,99319.91
2023-04-27T02:29:46.018Z,99315.41
2023-04-27T02:32:13.222Z,99320.47
2023-04-27T02:34:40.184Z,99332.56
2023-04-27T02:37:07.036Z,99326.38
2023-04-27T02:39:33.804Z,99337.84
2023-04-27T02:42:00.500Z,99330.94
2023-04-27T02:44:27.467Z,99339.69
2023-04-27T02:46:54.587Z,99328.16
2023-04-27T02:49:22.229Z,99329.03
2023-04-27T02:51:49.912Z,99329.13
2023-04-27T02:54:16.665Z,99333.63
2023-04-27T02:56:43.427Z,99333.69
2023-04-27T02:59:12.012Z,99332.03
2023-04-27T03:01:39.153Z,99333.72
2023-04-27T03:04:06.156Z,99335.47
2023-04-27T03:06:33.069Z,99338.22
2023-04-27T03:08:59.712Z,99337.91
2023-04-27T03:11:28.074Z,99339.88
2023-04-27T03:13:54.776Z,99341.66
2023-04-27T03:16:21.629Z,99338.94
2023-04-27T03:18:48.433Z,99337.22
2023-04-27T03:21:16.961Z,99339.22
2023-04-27T03:23:43.724Z,99336.16
2023-04-27T03:26:12.378Z,99331.75
2023-04-27T03:28:41.955Z,99330.16
2023-04-27T03:31:10.835Z,99319.63
2023-04-27T03:33:38.237Z,99318.63
2023-04-27T03:36:06.827Z,99311.88
2023-04-27T03:38:34.431Z,99316.31
2023-04-27T03:41:01.377Z,99315.56
2023-04-27T03:43:28.163Z,99315.38
2023-04-27T03:45:55.001Z,99317.09
2023-04-27T03:48:22.620Z,99312.00
2023-04-27T03:50:51.683Z,99312.72
2023-04-27T03:53:18.583Z,99323.22
2023-04-27T03:55:45.582Z,99311.88
2023-04-27T03:58:12.536Z,99316.25
2023-04-27T04:00:52.289Z,99308.47
2023-04-27T04:03:19.241Z,99312.78
2023-04-27T04:05:47.420Z,99313.41
2023-04-27T04:08:14.683Z,99316.88
2023-04-27T04:10:41.501Z,99316.25
2023-04-27T04:13:09.892Z,99316.16
2023-04-27T04:15:37.279Z,99318.19
2023-04-27T04:18:04.163Z,99312.66
2023-04-27T04:20:31.036Z,99318.25
2023-04-27T04:22:57.792Z,99324.31
2023-04-27T04:25:26.260Z,99326.72
2023-04-27T04:27:53.613Z,99324.78
2023-04-27T04:30:21.259Z,99338.84
2023-04-27T04:32:48.185Z,99338.00
2023-04-27T04:35:17.794Z,99342.38
2023-04-27T04:37:44.667Z,99347.88
2023-04-27T04:40:12.816Z,99343.78
2023-04-27T04:42:42.214Z,99347.78
2023-04-27T04:45:10.611Z,99354.25
2023-04-27T04:47:40.174Z,99360.41
2023-04-27T04:50:09.482Z,99359.78
2023-04-27T04:52:37.516Z,99355.44
2023-04-27T04:55:05.322Z,99348.91
2023-04-27T04:57:32.259Z,99354.53
2023-04-27T04:59:59.186Z,99352.53
2023-04-27T05:02:26.121Z,99355.56
2023-04-27T05:04:53.416Z,99344.97
2023-04-27T05:07:24.902Z,99352.44
2023-04-27T05:09:55.800Z,99348.44
2023-04-27T05:12:22.595Z,99349.34
2023-04-27T05:14:49.423Z,99359.03
2023-04-27T05:17:16.321Z,99353.44
2023-04-27T05:19:43.497Z,99357.22
2023-04-27T05:22:12.975Z,99358.31
2023-04-27T05:24:47.170Z,99357.97
2023-04-27T05:27:19.011Z,99362.28
2023-04-27T05:29:47.500Z,99360.44
2023-04-27T05:32:16.694Z,99357.22
2023-04-27T05:34:46.712Z,99358.28
2023-04-27T05:37:19.762Z,99360.13
2023-04-27T05:39:48.805Z,99367.75
2023-04-27T05:42:15.805Z,99366.97
2023-04-27T05:44:50.312Z,99357.31
2023-04-27T05:47:22.449Z,99362.34
2023-04-27T05:49:53.116Z,99356.16
2023-04-27T05:52:30.396Z,99358.28
2023-04-27T05:55:06.328Z,99364.75
2023-04-27T06:02:00.739Z,99363.84
2023-04-27T06:04:35.303Z,99359.94
2023-04-27T06:07:10.330Z,99361.56
2023-04-27T06:09:37.950Z,99368.63
2023-04-27T06:12:09.725Z,99363.84
2023-04-27T06:14:39.283Z,99366.09
2023-04-27T06:17:10.935Z,99374.28
2023-04-27T06:19:40.841Z,99377.03
2023-04-27T06:22:07.909Z,99368.06
2023-04-27T06:24:37.656Z,99367.19
2023-04-27T06:27:08.434Z,99380.66
2023-04-27T06:34:14.548Z,99384.47
2023-04-27T06:37:09.573Z,99378.97
2023-04-27T06:39:38.455Z,99392.34
2023-04-27T06:42:06.800Z,99386.16
2023-04-27T06:44:37.787Z,99388.09
2023-04-27T06:47:05.907Z,99385.81
2023-04-27T06:49:33.215Z,99396.09
2023-04-27T06:52:03.094Z,99395.50
2023-04-27T06:54:29.918Z,99391.75
2023-04-27T06:56:59.246Z,99388.91
2023-04-27T06:59:37.372Z,99389.53
2023-04-27T07:02:41.793Z,99391.63
2023-04-27T07:05:33.884Z,99384.63
2023-04-27T07:08:08.503Z,99389.44
2023-04-27T07:10:36.495Z,99391.63
2023-04-27T07:13:15.661Z,99385.63
2023-04-27T07:15:42.812Z,99396.16
2023-04-27T07:18:12.677Z,99396.69
2023-04-27T07:20:48.781Z,99397.53
2023-04-27T07:23:16.550Z,99393.06
2023-04-27T07:25:45.483Z,99399.34
2023-04-27T07:28:13.324Z,99391.91
2023-04-27T07:30:41.011Z,99393.09
2023-04-27T07:33:10.327Z,99393.69
2023-04-27T07:35:41.308Z,99392.69
2023-04-27T07:38:11.564Z,99395.75
2023-04-27T07:40:44.776Z,99394.69
2023-04-27T07:43:12.049Z,99400.06
2023-04-27T07:45:41.846Z,99396.50
2023-04-27T07:48:24.992Z,99385.03
2023-04-27T07:50:52.166Z,99390.97
2023-04-27T07:53:22.096Z,99385.25
2023-04-27T07:55:49.044Z,99388.50
2023-04-27T07:58:19.354Z,99388.41
2023-04-27T08:00:46.912Z,99390.28
2023-04-27T08:03:32.919Z,99382.84
2023-04-27T08:06:10.477Z,99382.50
2023-04-27T08:08:40.337Z,99380.16
2023-04-27T08:11:13.911Z,99370.53
2023-04-27T08:13:41.002Z,99381.53
2023-04-27T08:16:08.018Z,99377.13
2023-04-27T08:18:35.011Z,99376.06
2023-04-27T08:21:01.943Z,99372.53
2023-04-27T08:23:29.917Z,99373.88
2023-04-27T08:25:56.890Z,99369.94
2023-04-27T08:28:24.152Z,99360.03
2023-04-27T08:30:51.933Z,99357.44
2023-04-27T08:33:18.725Z,99360.47
2023-04-27T08:35:45.804Z,99356.47
2023-04-27T08:38:12.828Z,99349.31
2023-04-27T08:40:44.101Z,99346.19
2023-04-27T08:43:11.541Z,99349.84
2023-04-27T08:45:46.686Z,99353.19
2023-04-27T08:48:13.834Z,99354.38
2023-04-27T08:50:45.211Z,99347.75
2023-04-27T08:53:22.389Z,99352.94
2023-04-27T08:55:52.827Z,99348.03
2023-04-27T08:59:09.715Z,99347.66
2023-04-27T09:01:36.701Z,99343.41
2023-04-27T09:04:03.999Z,99340.94
2023-04-27T09:06:32.797Z,99341.75
2023-04-27T09:09:00.680Z,99343.38
2023-04-27T09:11:34.079Z,99337.16
2023-04-27T09:14:03.627Z,99342.84
2023-04-27T09:16:31.421Z,99339.88
2023-04-27T09:18:59.214Z,99344.75
2023-04-27T09:21:28.508Z,99333.34
2023-04-27T09:23:58.859Z,99335.50
2023-04-27T09:26:27.701Z,99334.28
2023-04-27T09:28:59.365Z,99330.31
2023-04-27T09:31:36.564Z,99328.94
2023-04-27T09:35:06.562Z,99326.84
2023-04-27T09:37:33.718Z,99325.47
2023-04-27T09:40:02.601Z,99323.13
2023-04-27T09:42:29.713Z,99315.56
2023-04-27T09:44:57.266Z,99321.44
2023-04-27T09:47:25.043Z,99313.75
2023-04-27T09:49:52.377Z,99317.06
2023-04-27T09:52:19.214Z,99307.59
2023-04-27T09:54:47.023Z,99306.84
2023-04-27T09:57:49.236Z,99299.00
2023-04-27T10:00:43.552Z,99303.44
2023-04-27T10:03:32.924Z,99308.47
2023-04-27T10:06:09.008Z,99303.47
2023-04-27T10:08:36.844Z,99304.81
2023-04-27T10:11:33.930Z,99303.16
2023-04-27T10:14:08.234Z,99305.53
2023-04-27T10:16:50.975Z,99301.50
2023-04-27T10:19:18.721Z,99296.25
2023-04-27T10:22:12.169Z,99296.59
2023-04-27T10:24:44.449Z,99295.13
2023-04-27T10:27:16.328Z,99294.44
2023-04-27T10:29:45.121Z,99290.63
2023-04-27T10:32:14.327Z,99283.44
2023-04-27T10:34:45.426Z,99286.59
2023-04-27T10:37:12.511Z,99283.06
2023-04-27T10:39:48.489Z,99284.56
2023-04-27T10:42:28.471Z,99289.66
2023-04-27T10:44:59.152Z,99298.19
2023-04-27T10:47:48.252Z,99297.69
2023-04-27T10:50:15.971Z,99294.22
2023-04-27T10:53:33.327Z,99289.97
2023-04-27T10:56:00.094Z,99288.72
2023-04-27T10:58:34.671Z,99284.38
2023-04-27T11:01:12.686Z,99277.44
2023-04-27T11:03:39.727Z,99281.22
2023-04-27T11:06:06.898Z,99278.41
2023-04-27T11:08:36.879Z,99275.13
2023-04-27T11:11:06.815Z,99266.78
2023-04-27T11:13:34.097Z,99270.06
2023-04-27T11:16:26.024Z,99279.81
2023-04-27T11:18:52.848Z,99273.94
2023-04-27T11:21:23.496Z,99267.28
2023-04-27T11:23:50.603Z,99263.22
2023-04-27T11:26:22.048Z,99264.69
2023-04-27T11:29:05.488Z,99257.97
2023-04-27T11:35:57.623Z,99257.69
2023-04-27T11:38:24.771Z,99254.28
2023-04-27T11:41:06.088Z,99254.06
2023-04-27T11:43:34.027Z,99254.44
2023-04-27T11:46:06.205Z,99250.72
2023-04-27T11:48:37.620Z,99256.31
2023-04-27T11:51:06.912Z,99253.16
2023-04-27T11:53:39.436Z,99251.34
2023-04-27T11:56:11.138Z,99253.13
2023-04-27T11:58:40.991Z,99243.06
2023-04-27T12:01:12.980Z,99239.88
2023-04-27T12:03:41.614Z,99236.47
2023-04-27T12:06:27.686Z,99247.09
2023-04-27T12:08:57.135Z,99247.00
2023-04-27T12:11:30.340Z,99238.88
2023-04-27T12:13:57.507Z,99243.00
2023-04-27T12:16:24.761Z,99238.88
2023-04-27T12:18:51.937Z,99230.25
2023-04-27T12:21:19.131Z,99234.75
2023-04-27T12:23:46.140Z,99234.75
2023-04-27T12:26:15.236Z,99229.50
2023-04-27T12:28:42.460Z,99226.50
2023-04-27T12:31:13.520Z,99228.47
2023-04-27T12:33:40.707Z,99234.09
2023-04-27T12:36:07.642Z,99240.09
2023-04-27T12:39:04.775Z,99228.66
2023-04-27T12:41:31.732Z,99231.44
2023-04-27T12:43:58.570Z,99229.13
2023-04-27T12:46:28.080Z,99238.44
2023-04-27T12:48:57.061Z,99229.19
2023-04-27T12:51:24.277Z,99218.41
2023-04-27T12:53:51.322Z,99210.94
2023-04-27T12:56:18.237Z,99211.94
2023-04-27T12:58:45.704Z,99213.97
2023-04-27T13:01:15.079Z,99212.69
2023-04-27T13:03:42.998Z,99213.94
2023-04-27T13:06:10.722Z,99208.78
2023-04-27T13:08:37.931Z,99204.25
2023-04-27T13:11:04.962Z,99194.66
2023-04-27T13:13:32.007Z,99202.81
2023-04-27T13:15:58.952Z,99193.94
2023-04-27T13:18:26.433Z,99200.81
2023-04-27T13:20:53.506Z,99202.22
2023-04-27T13:23:20.293Z,99199.66
2023-04-27T13:25:47.056Z,99200.53
2023-04-27T13:28:13.783Z,99191.81
2023-04-27T13:30:40.832Z,99188.72
2023-04-27T13:33:22.048Z,99195.19
2023-04-27T13:35:50.990Z,99184.47
2023-04-27T13:38:17.790Z,99178.25
2023-04-27T13:40:44.920Z,99178.94
2023-04-27T13:43:11.889Z,99177.69
2023-04-27T13:45:39.942Z,99177.78
2023-04-27T13:48:07.118Z,99179.91
2023-04-27T13:50:34.160Z,99162.16
2023-04-27T13:53:01.952Z,99174.78
2023-04-27T13:55:28.886Z,99173.84
2023-04-27T13:57:55.694Z,99168.84
2023-04-27T14:00:22.643Z,99177.44
2023-04-27T14:02:51.492Z,99180.94
2023-04-27T14:05:21.065Z,99175.72
2023-04-27T14:07:49.085Z,99173.97
2023-04-27T14:11:19.251Z,99170.81
2023-04-27T14:13:46.369Z,99171.44
2023-04-27T14:16:13.744Z,99160.56
2023-04-27T14:18:40.533Z,99166.34
2023-04-27T14:21:09.310Z,99158.72
2023-04-27T14:23:36.620Z,99163.25
2023-04-27T14:26:04.156Z,99164.22
2023-04-27T14:28:31.183Z,99166.50
2023-04-27T14:30:58.224Z,99161.44
2023-04-27T14:33:25.496Z,99161.56
2023-04-27T14:35:52.440Z,99157.66
2023-04-27T14:38:19.386Z,99152.25
2023-04-27T14:40:46.646Z,99155.00
2023-04-27T14:43:13.645Z,99155.72
2023-04-27T14:45:52.314Z,99157.41
2023-04-27T14:48:29.554Z,99166.97
2023-04-27T14:50:56.833Z,99161.47
2023-04-27T14:53:25.882Z,99159.25
2023-04-27T14:55:53.068Z,99166.50
2023-04-27T14:58:24.605Z,99170.19
2023-04-27T15:00:58.454Z,99167.56
2023-04-27T15:03:28.360Z,99169.22
2023-04-27T15:05:57.564Z,99164.03
2023-04-27T15:08:26.476Z,99165.38
2023-04-27T15:10:58.055Z,99168.03
2023-04-27T15:13:27.009Z,99164.16
2023-04-27T15:16:00.921Z,99168.44
2023-04-27T15:18:31.169Z,99162.91
2023-04-27T15:20:59.359Z,99155.63
2023-04-27T15:23:27.777Z,99159.00
2023-04-27T15:25:58.273Z,99160.53
2023-04-27T15:28:25.196Z,99161.22
2023-04-27T15:30:52.207Z,99160.59
2023-04-27T15:33:19.479Z,99162.59
2023-04-27T15:35:46.469Z,99162.53
2023-04-27T15:38:15.175Z,99152.97
2023-04-27T15:40:42.513Z,99152.63
2023-04-27T15:43:09.625Z,99151.72
2023-04-27T15:45:36.654Z,99153.50
2023-04-27T15:48:41.040Z,99146.88
2023-04-27T15:51:10.251Z,99140.19
2023-04-27T15:53:37.732Z,99143.31
2023-04-27T15:56:04.809Z,99133.53
2023-04-27T15:58:31.757Z,99119.75
2023-04-27T16:01:00.135Z,99124.53
2023-04-27T16:03:27.280Z,99111.09
2023-04-27T16:05:54.437Z,99105.06
2023-04-27T16:08:22.511Z,99108.94
2023-04-27T16:10:51.473Z,99097.81
2023-04-27T16:13:18.417Z,99099.38
2023-04-27T16:15:45.464Z,99102.22
2023-04-27T16:18:12.619Z,99104.31
2023-04-27T16:20:39.573Z,99103.50
2023-04-27T16:23:06.938Z,99098.84
2023-04-27T16:25:33.973Z,99098.16
2023-04-27T16:28:01.003Z,99096.41
2023-04-27T16:30:28.021Z,99104.06
2023-04-27T16:32:57.349Z,99096.28
2023-04-27T16:39:26.602Z,99097.31
2023-04-27T16:41:56.156Z,99099.25
2023-04-27T16:44:31.948Z,99101.75
2023-04-27T16:46:58.950Z,99106.88
2023-04-27T16:49:28.186Z,99101.03
2023-04-27T16:51:56.374Z,99104.34
2023-04-27T16:54:25.611Z,99100.88
2023-04-27T16:56:54.600Z,99102.84
2023-04-27T16:59:22.594Z,99103.69
2023-04-27T17:01:49.588Z,99091.19
2023-04-27T17:04:19.920Z,99103.06
2023-04-27T17:06:49.538Z,99103.81
2023-04-27T17:09:16.888Z,99103.50
2023-04-27T17:11:43.917Z,99106.22
2023-04-27T17:14:10.901Z,99104.22
2023-04-27T17:16:39.703Z,99101.06
2023-04-27T17:19:14.447Z,99104.78
2023-04-27T17:21:44.348Z,99111.56
2023-04-27T17:24:14.215Z,99118.13
2023-04-27T17:26:46.555Z,99112.91
2023-04-27T17:29:33.147Z,99115.63
2023-04-27T17:32:15.220Z,99120.47
2023-04-27T17:34:43.059Z,99117.28
2023-04-27T17:37:12.741Z,99116.53
2023-04-27T17:39:40.065Z,99119.19
2023-04-27T17:42:12.392Z,99119.47
2023-04-27T17:44:41.581Z,99121.84
2023-04-27T17:47:09.183Z,99115.84
2023-04-27T17:49:41.036Z,99117.16
2023-04-27T17:52:29.537Z,99125.16
2023-04-27T17:54:57.930Z,99117.94
2023-04-27T17:57:27.841Z,99117.34
2023-04-27T18:00:00.953Z,99115.19
2023-04-27T18:02:31.561Z,99105.59
2023-04-27T18:04:58.817Z,99101.22
2023-04-27T18:07:47.536Z,99102.66
2023-04-27T18:10:16.970Z,99107.81
2023-04-27T18:12:52.858Z,99108.09
2023-04-27T18:15:20.452Z,99112.06
2023-04-27T18:17:47.535Z,99123.84
2023-04-27T18:20:16.618Z,99116.56
2023-04-27T18:22:43.719Z,99115.59
2023-04-27T18:25:10.989Z,99116.53
2023-04-27T18:27:38.302Z,99118.31
2023-04-27T18:30:13.021Z,99109.38
2023-04-27T18:32:39.962Z,99119.88
2023-04-27T18:35:12.013Z,99119.94
2023-04-27T18:37:39.760Z,99122.59
2023-04-27T18:40:09.361Z,99121.06
2023-04-27T18:42:36.527Z,99117.47
2023-04-27T18:45:03.781Z,99125.78
2023-04-27T18:47:49.683Z,99121.41
2023-04-27T18:50:24.113Z,99121.03
2023-04-27T18:52:52.625Z,99122.31
2023-04-27T18:55:19.677Z,99125.00
2023-04-27T18:57:48.121Z,99126.00
2023-04-27T19:00:23.033Z,99120.06
2023-04-27T19:02:54.945Z,99124.72
2023-04-27T19:05:26.984Z,99117.00
2023-04-27T19:07:54.865Z,99112.97
2023-04-27T19:10:22.006Z,99115.22
2023-04-27T19:13:00.910Z,99123.88
2023-04-27T19:15:34.609Z,99124.13
2023-04-27T19:18:10.871Z,99129.47
2023-04-27T19:20:39.465Z,99129.09
2023-04-27T19:23:09.551Z,99121.09
2023-04-27T19:25:43.027Z,99126.91
2023-04-27T19:28:20.853Z,99127.72
2023-04-27T19:30:50.863Z,99127.59
2023-04-27T19:33:20.445Z,99126.34
2023-04-27T19:35:53.274Z,99133.53
2023-04-27T19:38:30.638Z,99130.59
2023-04-27T19:41:02.014Z,99126.91
2023-04-27T19:43:38.961Z,99120.00
2023-04-27T19:46:11.133Z,99130.66
2023-04-27T19:48:39.160Z,99119.34
2023-04-27T19:51:10.173Z,99123.47
2023-04-27T19:53:38.182Z,99113.75
2023-04-27T19:56:05.142Z,99111.25
2023-04-27T19:58:34.622Z,99115.34
2023-04-27T20:01:02.093Z,99108.63
2023-04-27T20:03:31.351Z,99113.31
2023-04-27T20:06:10.605Z,99111.72
2023-04-27T20:08:43.281Z,99119.38
2023-04-27T20:11:10.267Z,99116.94
2023-04-27T20:13:39.719Z,99114.81
2023-04-27T20:16:09.242Z,99120.13
2023-04-27T20:18:36.461Z,99113.72
2023-04-27T20:21:05.881Z,99111.50
2023-04-27T20:23:35.012Z,99115.63
2023-04-27T20:26:01.980Z,99106.25
2023-04-27T20:28:30.390Z,99111.88
2023-04-27T20:30:57.743Z,99107.69
2023-04-27T20:33:24.632Z,99114.34
2023-04-27T20:35:55.560Z,99119.56
2023-04-27T20:38:23.893Z,99113.59
2023-04-27T20:40:53.539Z,99105.69
2023-04-27T20:43:21.317Z,99110.81
2023-04-27T20:45:48.305Z,99105.41
2023-04-27T20:48:15.224Z,99098.22
2023-04-27T20:50:42.820Z,99105.28
2023-04-27T20:53:09.801Z,99109.97
2023-04-27T20:55:37.093Z,99100.38
2023-04-27T20:58:03.928Z,99093.31
2023-04-27T21:00:30.955Z,99086.16
2023-04-27T21:02:57.883Z,99088.03
2023-04-27T21:05:25.961Z,99095.03
2023-04-27T21:07:54.078Z,99088.91
2023-04-27T21:10:21.296Z,99080.88
2023-04-27T21:12:48.250Z,99077.97
2023-04-27T21:15:15.104Z,99082.31
2023-04-27T21:17:41.963Z,99087.34
2023-04-27T21:20:09.949Z,99084.59
2023-04-27T21:22:37.525Z,99078.44
2023-04-27T21:25:04.775Z,99086.28
2023-04-27T21:27:32.751Z,99081.78
2023-04-27T21:30:02.447Z,99080.09
2023-04-27T21:32:29.217Z,99077.63
2023-04-27T21:34:56.611Z,99080.09
2023-04-27T21:37:24.445Z,99076.06
2023-04-27T21:39:51.199Z,99078.44
2023-04-27T21:42:18.263Z,99076.63
2023-04-27T21:44:45.093Z,99080.59
2023-04-27T21:47:12.435Z,99070.97
2023-04-27T21:49:39.606Z,99067.22
2023-04-27T21:52:06.381Z,99066.28
2023-04-27T21:54:33.408Z,99070.25
2023-04-27T21:57:01.198Z,99065.81
2023-04-27T21:59:28.144Z,99068.72
2023-04-27T22:01:59.432Z,99062.66
2023-04-27T22:04:26.579Z,99063.25
2023-04-27T22:06:53.517Z,99065.88
2023-04-27T22:09:22.991Z,99060.75
2023-04-27T22:11:52.561Z,99066.16
2023-04-27T22:14:19.496Z,99068.63
2023-04-27T22:16:46.682Z,99069.50
2023-04-27T22:19:13.561Z,99071.91
2023-04-27T22:21:40.391Z,99075.88
2023-04-27T22:24:07.313Z,99068.56
2023-04-27T22:26:34.060Z,99063.00
2023-04-27T22:29:00.946Z,99063.00
2023-04-27T22:31:27.880Z,99064.00
2023-04-27T22:33:54.810Z,99063.88
2023-04-27T22:36:23.090Z,99062.03
2023-04-27T22:38:52.391Z,99064.75
2023-04-27T22:41:47.476Z,99064.75
2023-04-27T22:44:14.571Z,99062.47
2023-04-27T22:46:43.802Z,99060.47
2023-04-27T22:49:10.768Z,99058.47
2023-04-27T22:51:38.932Z,99056.53
2023-04-27T22:54:06.210Z,99041.81
2023-04-27T22:56:33.290Z,99055.13
2023-04-27T22:59:00.241Z,99047.09
2023-04-27T23:01:27.101Z,99047.03
2023-04-27T23:03:54.457Z,99035.50
2023-04-27T23:06:22.217Z,99042.31
2023-04-27T23:08:49.031Z,99033.00
2023-04-27T23:11:18.926Z,99030.00
2023-04-27T23:13:48.266Z,99020.63
2023-04-27T23:16:15.773Z,99015.50
2023-04-27T23:18:42.708Z,99016.50
2023-04-27T23:21:11.395Z,99015.81
2023-04-27T23:23:38.368Z,99010.91
2023-04-27T23:26:13.108Z,99015.13
2023-04-27T23:28:40.209Z,99012.56
2023-04-27T23:31:07.525Z,99018.50
2023-04-27T23:33:34.847Z,99015.94
2023-04-27T23:36:02.211Z,99016.75
2023-04-27T23:38:29.151Z,99011.19
2023-04-27T23:40:55.999Z,99010.94
2023-04-27T23:43:23.044Z,99007.31
2023-04-27T23:45:53.866Z,99003.97
2023-04-27T23:48:20.757Z,99002.41
2023-04-27T23:50:47.568Z,98989.91
2023-04-27T23:53:14.503Z,98991.81
2023-04-27T23:55:41.443Z,98992.63
2023-04-27T23:58:08.325Z,98985.34
